createdAt,value
2022-10-14T00:02:26.033Z,46.08
2022-10-14T00:07:27.443Z,44.17
2022-10-14T00:12:29.540Z,45.17
2022-10-14T00:17:30.948Z,43.65
2022-10-14T00:22:32.375Z,44.97
2022-10-14T00:27:33.848Z,45.65
2022-10-14T00:32:35.257Z,44.22
2022-10-14T00:37:36.695Z,44.53
2022-10-14T00:42:38.207Z,44.85
2022-10-14T00:47:41.772Z,45.90
2022-10-14T00:52:44.762Z,43.47
2022-10-14T00:57:46.285Z,46.72
2022-10-14T01:02:48.605Z,46.58
2022-10-14T01:08:15.527Z,48.30
2022-10-14T01:13:22.583Z,44.45
2022-10-14T01:18:48.318Z,47.65
2022-10-14T01:24:18.784Z,43.08
2022-10-14T01:29:25.936Z,46.25
2022-10-14T01:34:34.504Z,46.85
2022-10-14T01:39:42.236Z,45.25
2022-10-14T01:44:50.088Z,44.83
2022-10-14T01:50:02.854Z,47.33
2022-10-14T01:55:09.166Z,47.83
2022-10-14T02:00:11.418Z,48.85
2022-10-14T02:05:23.284Z,47.42
2022-10-14T02:10:34.145Z,48.67
2022-10-14T02:16:14.749Z,46.42
2022-10-14T02:21:19.933Z,48.35
2022-10-14T02:26:22.589Z,48.40
2022-10-14T02:31:27.491Z,44.60
2022-10-14T02:36:30.162Z,47.28
2022-10-14T02:41:36.207Z,42.88
2022-10-14T02:46:40.268Z,45.10
2022-10-14T02:51:41.754Z,45.00
2022-10-14T02:56:43.265Z,45.25
2022-10-14T03:01:44.876Z,43.63
2022-10-14T03:06:46.273Z,47.38
2022-10-14T03:11:48.084Z,49.75
2022-10-14T03:16:49.503Z,50.20
2022-10-14T03:21:51.540Z,47.97
2022-10-14T03:26:53.038Z,51.90
2022-10-14T03:31:54.580Z,49.55
2022-10-14T03:36:56.053Z,48.55
2022-10-14T03:41:57.664Z,48.90
2022-10-14T03:46:59.164Z,47.05
2022-10-14T03:52:00.620Z,46.05
2022-10-14T03:57:02.117Z,45.20
2022-10-14T04:02:03.627Z,43.70
2022-10-14T04:07:05.108Z,44.63
2022-10-14T04:12:06.658Z,42.88
2022-10-14T04:17:08.062Z,42.25
2022-10-14T04:22:10.082Z,43.40
2022-10-14T04:27:11.499Z,38.38
2022-10-14T04:32:12.933Z,43.15
2022-10-14T04:37:14.502Z,39.83
2022-10-14T04:42:15.951Z,38.17
2022-10-14T04:47:17.393Z,42.50
2022-10-14T04:52:19.140Z,38.53
2022-10-14T04:57:20.776Z,40.22
2022-10-14T05:02:22.473Z,40.50
2022-10-14T05:07:24.136Z,39.17
2022-10-14T05:12:25.717Z,40.38
2022-10-14T05:17:27.268Z,39.42
2022-10-14T05:22:28.690Z,40.38
2022-10-14T05:27:30.133Z,37.38
2022-10-14T05:32:31.957Z,40.47
2022-10-14T05:37:33.552Z,42.33
2022-10-14T05:42:35.119Z,41.33
2022-10-14T05:47:36.861Z,43.85
2022-10-14T05:52:40.117Z,41.45
2022-10-14T05:57:43.626Z,44.17
2022-10-14T06:02:45.099Z,45.40
2022-10-14T06:07:46.565Z,44.22
2022-10-14T06:12:48.050Z,45.00
2022-10-14T06:17:49.497Z,43.97
2022-10-14T06:22:50.932Z,44.17
2022-10-14T06:27:52.402Z,41.28
2022-10-14T06:32:54.160Z,41.95
2022-10-14T06:37:56.423Z,40.13
2022-10-14T06:42:59.124Z,41.05
2022-10-14T06:48:00.578Z,40.10
2022-10-14T06:53:02.033Z,39.42
2022-10-14T06:58:03.525Z,40.13
2022-10-14T07:03:04.989Z,40.08
2022-10-14T07:08:07.329Z,41.50
2022-10-14T07:13:10.565Z,41.13
2022-10-14T07:18:12.519Z,39.38
2022-10-14T07:23:14.413Z,37.95
2022-10-14T07:28:15.957Z,37.85
2022-10-14T07:33:17.393Z,39.35
2022-10-14T07:38:18.845Z,38.63
2022-10-14T07:43:20.318Z,38.88
2022-10-14T07:48:27.426Z,39.67
2022-10-14T07:53:35.219Z,38.03
2022-10-14T07:58:38.953Z,35.50
2022-10-14T08:03:43.749Z,36.17
2022-10-14T08:08:45.716Z,36.03
2022-10-14T08:13:47.693Z,33.58
2022-10-14T08:18:49.773Z,34.35
2022-10-14T08:23:51.613Z,31.45
2022-10-14T08:28:53.665Z,33.20
2022-10-14T08:33:55.376Z,33.00
2022-10-14T08:38:57.022Z,33.33
2022-10-14T08:44:17.212Z,36.92
2022-10-14T08:49:56.804Z,31.58
2022-10-14T08:55:05.013Z,32.20
2022-10-14T09:00:07.147Z,31.55
2022-10-14T09:05:16.783Z,28.70
2022-10-14T09:10:36.868Z,27.60
2022-10-14T09:15:42.464Z,26.13
2022-10-14T09:20:46.475Z,25.08
2022-10-14T09:26:05.639Z,23.50
2022-10-14T09:31:11.749Z,22.45
2022-10-14T09:36:19.414Z,23.50
2022-10-14T09:41:26.112Z,25.42
2022-10-14T09:46:27.661Z,23.83
2022-10-14T09:51:32.936Z,24.30
2022-10-14T09:56:40.634Z,26.10
2022-10-14T10:01:51.235Z,25.38
2022-10-14T10:06:55.073Z,24.85
2022-10-14T10:11:56.715Z,27.80
2022-10-14T10:17:07.470Z,27.25
2022-10-14T10:27:28.926Z,26.70
2022-10-14T10:32:33.145Z,29.00
2022-10-14T10:37:50.398Z,28.70
2022-10-14T10:43:16.345Z,28.25
2022-10-14T10:48:44.860Z,28.00
2022-10-14T10:54:07.895Z,27.52
2022-10-14T10:59:21.272Z,24.58
2022-10-14T11:04:34.271Z,24.20
2022-10-14T11:10:05.462Z,23.90
2022-10-14T11:15:20.297Z,23.10
2022-10-14T11:21:09.888Z,23.70
2022-10-14T11:26:38.764Z,22.77
2022-10-14T11:31:51.001Z,21.45
2022-10-14T11:37:02.421Z,19.60
2022-10-14T11:42:13.591Z,18.65
2022-10-14T11:47:38.667Z,21.00
2022-10-14T11:53:20.490Z,20.75
2022-10-14T11:58:26.454Z,19.23
2022-10-14T12:03:45.948Z,18.70
2022-10-14T12:08:55.568Z,16.75
2022-10-14T12:14:09.404Z,15.05
2022-10-14T12:19:14.384Z,16.50
2022-10-14T12:24:20.090Z,16.00
2022-10-14T12:29:25.224Z,17.75
2022-10-14T12:34:32.125Z,16.00
2022-10-14T12:39:34.855Z,15.98
2022-10-14T12:44:52.006Z,16.58
2022-10-14T12:49:56.316Z,20.98
2022-10-14T12:55:00.771Z,20.15
2022-10-14T13:00:25.597Z,19.00
2022-10-14T13:05:27.268Z,21.83
2022-10-14T13:10:43.272Z,20.05
2022-10-14T13:15:52.784Z,20.65
2022-10-14T13:20:54.465Z,21.08
2022-10-14T13:26:28.305Z,21.15
2022-10-14T13:31:36.366Z,22.55
2022-10-14T13:36:57.517Z,22.30
2022-10-14T13:41:59.217Z,22.27
2022-10-14T13:47:01.452Z,23.35
2022-10-14T13:52:05.972Z,20.70
2022-10-14T14:02:38.343Z,22.27
2022-10-14T14:13:04.958Z,22.83
2022-10-14T14:18:30.549Z,23.35
2022-10-14T14:24:15.017Z,24.35
2022-10-14T14:29:19.189Z,24.10
2022-10-14T14:34:22.221Z,23.95
2022-10-14T14:39:29.240Z,22.98
2022-10-14T14:44:33.649Z,23.77
2022-10-14T14:49:38.581Z,21.23
2022-10-14T14:54:47.669Z,21.38
2022-10-14T15:00:18.797Z,23.42
2022-10-14T15:05:21.151Z,23.48
2022-10-14T15:10:26.438Z,24.67
2022-10-14T15:15:31.032Z,24.98
2022-10-14T15:20:35.893Z,27.80
2022-10-14T15:25:37.385Z,24.48
2022-10-14T15:30:38.749Z,29.55
2022-10-14T15:35:41.075Z,29.05
2022-10-14T15:40:42.592Z,27.33
2022-10-14T15:45:46.450Z,27.15
2022-10-14T15:50:48.357Z,28.15
2022-10-14T15:55:52.837Z,26.67
2022-10-14T16:00:54.558Z,26.47
2022-10-14T16:05:56.019Z,26.80
2022-10-14T16:10:59.049Z,26.95
2022-10-14T16:16:03.555Z,26.40
2022-10-14T16:21:05.239Z,27.25
2022-10-14T16:26:06.635Z,27.35
2022-10-14T16:31:12.458Z,31.98
2022-10-14T16:36:14.860Z,27.25
2022-10-14T16:41:16.434Z,25.45
2022-10-14T16:46:17.888Z,24.00
2022-10-14T16:56:40.672Z,22.10
2022-10-14T17:01:42.197Z,24.30
2022-10-14T17:06:43.689Z,25.42
2022-10-14T17:11:46.015Z,25.02
2022-10-14T17:16:48.484Z,24.85
2022-10-14T17:21:50.183Z,24.33
2022-10-14T17:26:51.597Z,23.20
2022-10-14T17:31:53.087Z,23.60
2022-10-14T17:36:54.842Z,23.63
2022-10-14T17:41:56.336Z,24.20
2022-10-14T17:46:59.258Z,22.45
2022-10-14T17:52:02.199Z,22.08
2022-10-14T17:57:03.781Z,23.65
2022-10-14T18:02:09.593Z,22.83
2022-10-14T18:07:11.972Z,22.75
2022-10-14T18:12:13.519Z,24.80
2022-10-14T18:17:15.247Z,21.85
2022-10-14T18:22:16.735Z,22.13
2022-10-14T18:27:18.692Z,23.27
2022-10-14T18:32:20.288Z,23.27
2022-10-14T18:37:21.989Z,21.55
2022-10-14T18:42:23.732Z,22.63
2022-10-14T18:47:25.351Z,23.00
2022-10-14T18:52:26.759Z,22.60
2022-10-14T18:57:29.043Z,25.02
2022-10-14T19:02:33.666Z,23.35
2022-10-14T19:07:35.715Z,23.27
2022-10-14T19:12:43.115Z,25.23
2022-10-14T19:17:50.870Z,25.30
2022-10-14T19:22:56.703Z,26.40
2022-10-14T19:27:58.549Z,25.10
2022-10-14T19:32:59.989Z,24.85
2022-10-14T19:38:01.408Z,26.00
2022-10-14T19:43:02.863Z,26.67
2022-10-14T19:48:05.881Z,24.55
2022-10-14T19:53:07.658Z,24.98
2022-10-14T19:58:09.501Z,23.23
2022-10-14T20:03:11.014Z,21.77
2022-10-14T20:08:12.596Z,20.70
2022-10-14T20:13:14.081Z,20.95
2022-10-14T20:18:17.973Z,18.23
2022-10-14T20:23:20.140Z,18.45
2022-10-14T20:28:21.713Z,18.25
2022-10-14T20:33:23.550Z,17.52
2022-10-14T20:38:25.055Z,17.00
2022-10-14T20:43:26.523Z,17.17
2022-10-14T20:48:27.971Z,18.70
2022-10-14T20:53:29.734Z,16.95
2022-10-14T20:58:31.656Z,18.08
2022-10-14T21:03:33.127Z,17.65
2022-10-14T21:08:35.655Z,16.92
2022-10-14T21:13:37.476Z,17.00
2022-10-14T21:18:38.937Z,18.40
2022-10-14T21:23:40.357Z,19.52
2022-10-14T21:28:42.109Z,19.77
2022-10-14T21:33:43.570Z,18.85
2022-10-14T21:38:45.166Z,20.73
2022-10-14T21:43:46.625Z,20.33
2022-10-14T21:48:48.094Z,17.83
2022-10-14T21:53:49.538Z,19.15
2022-10-14T21:58:51.073Z,17.90
2022-10-14T22:04:04.231Z,18.85
2022-10-14T22:09:07.153Z,17.90
2022-10-14T22:14:12.590Z,17.90
2022-10-14T22:19:14.260Z,18.98
2022-10-14T22:24:15.783Z,18.27
2022-10-14T22:29:17.835Z,19.40
2022-10-14T22:34:19.249Z,18.52
2022-10-14T22:39:20.840Z,18.83
2022-10-14T22:44:22.260Z,19.52
2022-10-14T22:49:23.726Z,19.98
2022-10-14T22:54:25.201Z,18.52
2022-10-14T22:59:26.765Z,18.85
2022-10-14T23:04:28.173Z,18.50
2022-10-14T23:09:29.938Z,18.67
2022-10-14T23:14:31.477Z,17.92
2022-10-14T23:19:33.209Z,18.95
2022-10-14T23:24:34.642Z,18.50
2022-10-14T23:29:36.084Z,20.08
2022-10-14T23:34:37.545Z,18.65
2022-10-14T23:39:39.280Z,19.60
2022-10-14T23:44:40.885Z,18.08
2022-10-14T23:49:42.345Z,19.50
2022-10-14T23:54:43.825Z,18.90
2022-10-14T23:59:45.348Z,19.55
